DAL1207 KDTW-KDFW
Flight info
| Callsign | DAL1207 |
|---|---|
| Flight time | N/A |
| Altitude | 34000 |
| Route | SNDRS3 BGHRT STL RZC FSM RRNET SEEVR4 |
| Aircraft | A21N/M-SDE2E3FGHIRWXY/LB1 |
Departure
| Time | N/A |
|---|---|
| Airport | Detroit Metropolitan Wayne County Airport (KDTW) |
Arrival
| Time | 2026-05-05 00:57 |
|---|---|
| Airport | Dallas Fort Worth International Airport (KDFW) |
| Time | Latitude | Longitude | Altitude | Speed | Heading |
|---|---|---|---|---|---|
| 2026-05-05 00:46 | 33.27734 | -96.77512 | 6771 ft | 245 kts | 265° |
| 2026-05-05 00:46 | 33.27638 | -96.79537 | 6592 ft | 242 kts | 265° |
| 2026-05-05 00:46 | 33.27544 | -96.81528 | 6362 ft | 236 kts | 265° |
| 2026-05-05 00:46 | 33.27453 | -96.83456 | 6146 ft | 229 kts | 265° |
| 2026-05-05 00:47 | 33.27373 | -96.85338 | 5904 ft | 224 kts | 266° |
| 2026-05-05 00:47 | 33.27324 | -96.87154 | 5711 ft | 214 kts | 265° |
| 2026-05-05 00:47 | 33.27278 | -96.88914 | 5546 ft | 211 kts | 265° |
| 2026-05-05 00:47 | 33.27230 | -96.90676 | 5419 ft | 211 kts | 264° |
| 2026-05-05 00:48 | 33.27154 | -96.92419 | 5296 ft | 209 kts | 256° |
| 2026-05-05 00:48 | 33.26592 | -96.94001 | 5198 ft | 208 kts | 239° |
| 2026-05-05 00:48 | 33.25827 | -96.95468 | 5100 ft | 208 kts | 237° |
| 2026-05-05 00:48 | 33.25052 | -96.96919 | 5002 ft | 207 kts | 237° |
| 2026-05-05 00:49 | 33.24275 | -96.98362 | 4980 ft | 207 kts | 234° |
| 2026-05-05 00:49 | 33.23327 | -96.99649 | 4991 ft | 206 kts | 224° |
| 2026-05-05 00:49 | 33.22161 | -97.00621 | 5002 ft | 208 kts | 206° |
| 2026-05-05 00:49 | 33.20804 | -97.01250 | 5016 ft | 210 kts | 203° |
| 2026-05-05 00:50 | 33.19401 | -97.01731 | 5012 ft | 207 kts | 192° |
| 2026-05-05 00:50 | 33.18014 | -97.01837 | 4928 ft | 192 kts | 187° |
| 2026-05-05 00:50 | 33.16725 | -97.01876 | 4746 ft | 180 kts | 187° |
| 2026-05-05 00:50 | 33.15499 | -97.01929 | 4443 ft | 173 kts | 188° |
| 2026-05-05 00:51 | 33.14315 | -97.01991 | 4127 ft | 168 kts | 187° |
| 2026-05-05 00:51 | 33.13166 | -97.02049 | 3793 ft | 163 kts | 188° |
| 2026-05-05 00:51 | 33.12053 | -97.02170 | 3470 ft | 158 kts | 188° |
| 2026-05-05 00:51 | 33.10973 | -97.02277 | 3142 ft | 154 kts | 187° |
| 2026-05-05 00:52 | 33.09886 | -97.02352 | 3003 ft | 157 kts | 185° |
| 2026-05-05 00:52 | 33.08794 | -97.02399 | 2984 ft | 157 kts | 183° |
| 2026-05-05 00:52 | 33.07705 | -97.02437 | 2992 ft | 157 kts | 185° |
| 2026-05-05 00:52 | 33.06614 | -97.02495 | 3005 ft | 157 kts | 182° |
| 2026-05-05 00:53 | 33.05521 | -97.02510 | 3007 ft | 157 kts | 183° |
| 2026-05-05 00:53 | 33.04429 | -97.02519 | 3033 ft | 157 kts | 184° |
| 2026-05-05 00:53 | 33.03340 | -97.02526 | 2868 ft | 153 kts | 183° |
| 2026-05-05 00:53 | 33.02320 | -97.02531 | 2680 ft | 140 kts | 182° |
| 2026-05-05 00:54 | 33.01375 | -97.02536 | 2486 ft | 134 kts | 182° |
| 2026-05-05 00:54 | 33.00442 | -97.02541 | 2366 ft | 134 kts | 182° |
| 2026-05-05 00:54 | 32.99508 | -97.02547 | 2191 ft | 136 kts | 182° |
| 2026-05-05 00:54 | 32.98559 | -97.02552 | 1996 ft | 136 kts | 182° |
| 2026-05-05 00:55 | 32.97607 | -97.02557 | 1806 ft | 139 kts | 181° |
| 2026-05-05 00:55 | 32.96628 | -97.02562 | 1627 ft | 140 kts | 180° |
| 2026-05-05 00:55 | 32.95658 | -97.02567 | 1423 ft | 141 kts | 180° |
| 2026-05-05 00:55 | 32.94650 | -97.02573 | 1228 ft | 143 kts | 180° |
| 2026-05-05 00:56 | 32.93717 | -97.02587 | 1053 ft | 128 kts | 179° |
| 2026-05-05 00:56 | 32.92830 | -97.02602 | 827 ft | 128 kts | 176° |
| 2026-05-05 00:56 | 32.91928 | -97.02598 | 672 ft | 129 kts | 180° |
| 2026-05-05 00:56 | 32.91038 | -97.02598 | 573 ft | 121 kts | 180° |
| 2026-05-05 00:57 | 32.90457 | -97.02604 | 583 ft | 44 kts | 180° |
| 2026-05-05 00:57 | 32.90146 | -97.02605 | 580 ft | 43 kts | 180° |
| 2026-05-05 00:57 | 32.89980 | -97.02651 | 579 ft | 10 kts | 197° |
| 2026-05-05 00:57 | 32.89962 | -97.02688 | 576 ft | 7 kts | 285° |
| 2026-05-05 00:58 | 32.89967 | -97.02704 | 576 ft | 4 kts | 301° |
| 2026-05-05 00:58 | 32.89996 | -97.02726 | 578 ft | 5 kts | 335° |
| 2026-05-05 00:58 | 32.90030 | -97.02746 | 583 ft | 7 kts | 333° |
| 2026-05-05 00:58 | 32.90017 | -97.02800 | 579 ft | 12 kts | 189° |
| 2026-05-05 00:59 | 32.89925 | -97.02801 | 577 ft | 15 kts | 178° |
| 2026-05-05 00:59 | 32.89810 | -97.02802 | 578 ft | 18 kts | 181° |
| 2026-05-05 00:59 | 32.89674 | -97.02803 | 577 ft | 21 kts | 181° |
| 2026-05-05 00:59 | 32.89523 | -97.02806 | 578 ft | 22 kts | 178° |
| 2026-05-05 01:00 | 32.89371 | -97.02805 | 580 ft | 23 kts | 180° |
| 2026-05-05 01:00 | 32.89206 | -97.02805 | 581 ft | 24 kts | 180° |
| 2026-05-05 01:00 | 32.89055 | -97.02817 | 583 ft | 14 kts | 218° |
| 2026-05-05 01:00 | 32.89039 | -97.02933 | 579 ft | 16 kts | 275° |
| 2026-05-05 01:01 | 32.89037 | -97.03066 | 577 ft | 16 kts | 270° |
| 2026-05-05 01:01 | 32.89040 | -97.03206 | 582 ft | 18 kts | 270° |
| 2026-05-05 01:01 | 32.89039 | -97.03337 | 589 ft | 14 kts | 270° |
| 2026-05-05 01:01 | 32.89036 | -97.03441 | 589 ft | 9 kts | 270° |
| 2026-05-05 01:02 | 32.89036 | -97.03501 | 590 ft | 5 kts | 271° |
| 2026-05-05 01:02 | 32.89037 | -97.03521 | 590 ft | 0 kts | 272° |